Time;durP1;ratioP1;P1;durP2;ratioP2;P2;SDS_P1;SDS_P2;PMS_P1;PMS_P2;Temp;Humidity;BMP_temperature;BMP_pressure;BME280_temperature;BME280_humidity;BME280_pressure;Samples;Min_cycle;Max_cycle;Signal;HPM_P1;HPM_P2
2022/04/10 00:00:56;;;;;;;7.70;3.30;;;;;;;3.58;65.18;99795.88;4971266;28;20117;-66
2022/04/10 00:03:22;;;;;;;8.70;3.20;;;;;;;3.58;64.86;99799.31;4971454;28;20058;-67
2022/04/10 00:05:52;;;;;;;8.77;4.07;;;;;;;3.58;65.10;99788.91;4972034;28;20038;-66
2022/04/10 00:08:17;;;;;;;10.75;3.78;;;;;;;3.61;65.14;99799.25;4971453;28;20042;-66
2022/04/10 00:10:43;;;;;;;7.35;3.83;;;;;;;3.60;65.04;99794.09;4972784;28;20041;-66
2022/04/10 00:13:08;;;;;;;8.13;3.40;;;;;;;3.60;65.64;99807.13;4976277;28;20066;-66
2022/04/10 00:15:34;;;;;;;5.55;3.25;;;;;;;3.58;65.59;99803.69;4976957;28;20054;-65
2022/04/10 00:17:59;;;;;;;12.77;4.13;;;;;;;3.57;65.75;99813.25;4976561;28;20035;-65
2022/04/10 00:20:25;;;;;;;6.85;3.47;;;;;;;3.57;66.40;99805.44;4975004;28;20042;-66
2022/04/10 00:22:50;;;;;;;5.22;3.65;;;;;;;3.57;66.28;99805.44;4973778;28;20038;-65
2022/04/10 00:25:18;;;;;;;9.38;3.47;;;;;;;3.56;66.64;99813.28;4972405;28;20030;-65
2022/04/10 00:27:43;;;;;;;9.65;3.75;;;;;;;3.54;66.87;99807.25;4970491;28;20589;-65
2022/04/10 00:30:13;;;;;;;10.07;3.70;;;;;;;3.51;67.36;99800.34;4971328;28;21439;-66
2022/04/10 00:32:39;;;;;;;9.93;4.75;;;;;;;3.45;67.83;99803.09;4971142;28;20418;-65
2022/04/10 00:35:05;;;;;;;10.77;3.88;;;;;;;3.43;67.87;99802.25;4971637;28;20039;-65
2022/04/10 00:37:31;;;;;;;10.93;4.60;;;;;;;3.40;68.37;99805.78;4971772;28;20051;-65
2022/04/10 00:39:57;;;;;;;10.80;6.20;;;;;;;3.34;68.57;99803.28;4972468;28;20483;-66
2022/04/10 00:42:22;;;;;;;10.57;4.78;;;;;;;3.35;68.86;99802.41;4971249;28;20102;-66
2022/04/10 00:44:48;;;;;;;9.73;4.32;;;;;;;3.33;69.14;99798.97;4975091;28;20050;-65
2022/04/10 00:47:13;;;;;;;8.23;3.70;;;;;;;3.38;68.95;99798.88;4974839;28;20030;-65
2022/04/10 00:49:39;;;;;;;9.20;4.78;;;;;;;3.36;69.11;99798.91;4974408;28;20408;-65
2022/04/10 00:52:07;;;;;;;9.40;4.70;;;;;;;3.38;69.30;99791.06;4973973;28;20129;-66
2022/04/10 00:54:33;;;;;;;9.75;4.55;;;;;;;3.36;68.99;99798.03;4974801;28;20042;-65
2022/04/10 00:57:00;;;;;;;19.25;5.95;;;;;;;3.36;68.94;99796.28;4974054;28;20398;-66
2022/04/10 00:59:26;;;;;;;12.13;4.07;;;;;;;3.35;69.14;99805.00;4973860;28;20089;-65
2022/04/10 01:01:52;;;;;;;7.65;4.45;;;;;;;3.35;68.86;99801.56;4964411;28;20062;-66
2022/04/10 01:04:17;;;;;;;10.77;5.30;;;;;;;3.31;69.23;99803.34;4974259;28;20495;-65
2022/04/10 01:06:46;;;;;;;14.68;4.63;;;;;;;3.29;69.49;99801.66;4974372;28;20043;-65
2022/04/10 01:09:12;;;;;;;14.55;4.90;;;;;;;3.26;69.52;99799.13;4969849;28;20699;-65
2022/04/10 01:11:37;;;;;;;14.07;4.85;;;;;;;3.22;70.25;99807.00;4974105;28;20039;-65
2022/04/10 01:14:06;;;;;;;6.05;4.22;;;;;;;3.30;69.73;99803.34;4973722;28;20039;-66
2022/04/10 01:16:32;;;;;;;10.00;4.47;;;;;;;3.34;69.62;99802.44;4974204;28;20042;-65
2022/04/10 01:18:58;;;;;;;12.10;3.90;;;;;;;3.36;69.51;99803.25;4973684;28;20039;-65
2022/04/10 01:21:27;;;;;;;12.15;4.95;;;;;;;3.37;69.37;99807.56;4973623;28;20122;-66
2022/04/10 01:23:55;;;;;;;8.32;4.18;;;;;;;3.37;69.75;99808.44;4973864;28;20439;-66
2022/04/10 01:26:25;;;;;;;15.10;5.60;;;;;;;3.39;69.51;99804.03;4973903;28;20037;-65
2022/04/10 01:29:02;;;;;;;7.45;4.47;;;;;;;3.43;69.55;99804.84;4972780;28;20173;-66
2022/04/10 01:31:30;;;;;;;8.18;4.97;;;;;;;3.46;69.47;99802.19;4973516;28;20042;-65
2022/04/10 01:33:57;;;;;;;11.80;5.72;;;;;;;3.49;69.24;99804.72;4973915;28;20510;-65
2022/04/10 01:36:27;;;;;;;13.45;5.57;;;;;;;3.51;69.38;99797.72;4974093;28;20095;-65
2022/04/10 01:38:55;;;;;;;8.52;5.72;;;;;;;3.55;69.05;99799.41;4973774;28;20043;-66
2022/04/10 01:41:21;;;;;;;9.27;4.95;;;;;;;3.59;68.85;99797.56;4973198;28;20070;-65
2022/04/10 01:43:48;;;;;;;14.15;5.57;;;;;;;3.58;68.68;99804.53;4973864;28;20034;-65
2022/04/10 01:46:14;;;;;;;8.32;4.93;;;;;;;3.59;68.80;99803.66;4974090;28;20035;-65
2022/04/10 01:48:40;;;;;;;9.77;4.65;;;;;;;3.61;68.75;99804.47;4974437;28;20069;-65
2022/04/10 01:51:06;;;;;;;9.32;5.13;;;;;;;3.65;68.35;99810.50;4974242;28;20457;-65
2022/04/10 01:53:31;;;;;;;8.93;5.65;;;;;;;3.69;68.30;99800.84;4974468;28;20047;-66
2022/04/10 01:55:58;;;;;;;8.85;5.30;;;;;;;3.72;68.48;99812.09;4976103;28;20070;-65
2022/04/10 01:58:23;;;;;;;11.75;5.22;;;;;;;3.74;68.40;99809.44;4977634;28;20419;-65
2022/04/10 02:00:49;;;;;;;8.20;5.03;;;;;;;3.76;68.65;99807.66;4970828;28;20050;-66
2022/04/10 02:03:14;;;;;;;7.07;4.85;;;;;;;3.77;68.45;99810.25;4972949;28;20073;-65
2022/04/10 02:05:40;;;;;;;9.20;5.57;;;;;;;3.76;68.25;99818.09;4966263;28;20142;-67
2022/04/10 02:08:05;;;;;;;8.68;5.47;;;;;;;3.67;68.99;99821.75;4974141;28;20042;-64
2022/04/10 02:10:31;;;;;;;9.75;5.18;;;;;;;3.68;68.75;99815.63;4973192;28;20715;-64
2022/04/10 02:12:56;;;;;;;10.25;6.25;;;;;;;3.69;68.51;99816.50;4979286;28;20065;-64
2022/04/10 02:15:22;;;;;;;8.02;5.80;;;;;;;3.68;68.43;99822.59;4992921;28;20042;-65
2022/04/10 02:17:47;;;;;;;8.40;4.43;;;;;;;3.72;68.59;99827.72;4991426;28;20125;-65
2022/04/10 02:20:13;;;;;;;8.65;4.78;;;;;;;3.78;68.78;99831.97;4991042;28;20045;-65
2022/04/10 02:22:38;;;;;;;8.20;4.95;;;;;;;3.82;68.89;99821.44;4992429;28;20050;-66
2022/04/10 02:25:04;;;;;;;7.75;4.75;;;;;;;3.86;69.15;99824.81;4992761;28;20034;-66
2022/04/10 02:27:29;;;;;;;8.93;4.60;;;;;;;3.86;68.38;99817.00;4992836;28;20058;-66
2022/04/10 02:29:54;;;;;;;8.20;5.68;;;;;;;3.85;68.22;99817.91;4992512;28;20038;-67
2022/04/10 02:32:20;;;;;;;9.00;4.57;;;;;;;3.84;68.23;99819.66;4991662;28;20084;-66
2022/04/10 02:34:45;;;;;;;9.45;5.38;;;;;;;3.85;68.20;99825.72;4992335;28;20129;-66
2022/04/10 02:37:10;;;;;;;8.57;5.22;;;;;;;3.86;68.26;99822.22;4992821;28;20406;-66
2022/04/10 02:39:36;;;;;;;9.07;5.40;;;;;;;3.89;68.16;99816.94;4992417;28;20069;-65
2022/04/10 02:42:01;;;;;;;7.68;5.30;;;;;;;3.93;67.95;99817.72;4991961;28;20501;-66
2022/04/10 02:44:27;;;;;;;9.00;5.20;;;;;;;3.96;67.93;99831.56;4992762;28;20045;-65
2022/04/10 02:46:52;;;;;;;13.52;6.43;;;;;;;3.99;68.18;99838.47;4992762;28;20057;-65
2022/04/10 02:49:18;;;;;;;8.27;5.13;;;;;;;4.03;67.91;99842.72;4992314;28;20045;-66
2022/04/10 02:51:44;;;;;;;7.18;4.93;;;;;;;4.04;68.15;99839.25;4992106;28;20035;-65
2022/04/10 02:54:09;;;;;;;11.60;5.43;;;;;;;4.05;68.40;99830.50;4992613;28;20437;-65
2022/04/10 02:56:35;;;;;;;12.55;5.63;;;;;;;4.08;67.94;99830.44;4955116;28;20046;-65
2022/04/10 02:59:00;;;;;;;8.73;5.32;;;;;;;4.07;68.19;99823.50;4972651;28;20043;-65
2022/04/10 03:01:25;;;;;;;9.35;4.97;;;;;;;4.03;68.82;99830.53;4970879;28;20458;-64
2022/04/10 03:03:51;;;;;;;8.52;5.20;;;;;;;3.98;68.85;99829.78;4973779;28;20034;-65
2022/04/10 03:06:16;;;;;;;12.05;5.15;;;;;;;3.94;69.00;99828.13;4973372;28;20035;-64
2022/04/10 03:08:42;;;;;;;8.63;5.28;;;;;;;3.89;69.39;99824.78;4972640;28;20042;-65
2022/04/10 03:11:07;;;;;;;7.20;4.60;;;;;;;3.87;69.44;99824.81;4975511;28;20042;-63
2022/04/10 03:13:32;;;;;;;6.82;4.97;;;;;;;3.86;69.40;99822.22;4976882;28;20111;-63
2022/04/10 03:15:58;;;;;;;11.50;5.82;;;;;;;3.79;69.49;99834.53;4974640;28;20404;-64
2022/04/10 03:18:24;;;;;;;15.75;6.80;;;;;;;3.75;70.30;99832.03;4972168;28;20042;-65
2022/04/10 03:20:49;;;;;;;11.73;5.68;;;;;;;3.78;69.91;99837.16;4972247;28;20406;-65
2022/04/10 03:23:15;;;;;;;8.23;6.03;;;;;;;3.74;70.37;99838.13;4972385;28;20159;-66
2022/04/10 03:25:40;;;;;;;10.95;5.68;;;;;;;3.77;70.44;99841.53;4973866;28;20118;-67
2022/04/10 03:28:06;;;;;;;12.43;5.90;;;;;;;3.82;70.17;99844.91;4976842;28;20067;-67
2022/04/10 03:30:31;;;;;;;8.60;5.97;;;;;;;3.84;69.98;99848.34;4974810;28;20049;-65
2022/04/10 03:32:56;;;;;;;14.82;6.53;;;;;;;3.88;70.03;99844.75;4972779;28;20143;-65
2022/04/10 03:35:22;;;;;;;11.45;5.90;;;;;;;3.92;70.04;99845.56;4972687;28;20039;-65
2022/04/10 03:37:47;;;;;;;9.27;6.50;;;;;;;3.90;70.15;99842.13;4971951;28;20093;-67
2022/04/10 03:40:13;;;;;;;9.90;5.80;;;;;;;3.86;70.18;99843.97;4971910;28;20038;-67
2022/04/10 03:42:39;;;;;;;14.15;6.05;;;;;;;3.90;69.53;99841.28;4971989;28;20031;-65
2022/04/10 03:45:09;;;;;;;7.25;5.60;;;;;;;3.92;69.50;99853.38;4973540;28;20034;-64
2022/04/10 03:47:36;;;;;;;8.93;5.32;;;;;;;3.91;69.40;99837.75;4972868;28;20055;-65
2022/04/10 03:50:02;;;;;;;14.63;6.95;;;;;;;3.84;69.52;99842.28;4972383;28;20055;-65
2022/04/10 03:52:28;;;;;;;8.70;5.75;;;;;;;3.79;70.09;99841.47;4972482;28;20038;-65
2022/04/10 03:54:53;;;;;;;10.73;5.88;;;;;;;3.80;69.86;99845.81;4972966;28;20038;-64
2022/04/10 03:57:18;;;;;;;10.57;5.28;;;;;;;3.79;70.06;99850.19;4972665;28;20043;-63
2022/04/10 03:59:44;;;;;;;10.25;6.03;;;;;;;3.78;70.02;99858.03;4974202;28;20466;-65
2022/04/10 04:02:09;;;;;;;10.23;5.82;;;;;;;3.74;70.39;99854.63;4974052;28;20046;-65
2022/04/10 04:04:36;;;;;;;13.70;6.13;;;;;;;3.64;70.44;99848.75;4973884;28;20414;-65
2022/04/10 04:07:02;;;;;;;9.27;5.85;;;;;;;3.62;71.05;99858.34;4974003;28;20537;-64
2022/04/10 04:09:27;;;;;;;13.32;5.90;;;;;;;3.60;71.30;99856.66;4973912;28;20042;-64
2022/04/10 04:11:53;;;;;;;15.00;6.88;;;;;;;3.61;71.43;99860.97;4972332;28;20134;-64
2022/04/10 04:14:19;;;;;;;7.20;5.25;;;;;;;3.61;71.55;99859.22;4972399;28;20039;-62
2022/04/10 04:16:44;;;;;;;10.52;7.15;;;;;;;3.70;71.43;99866.00;4971980;28;20038;-64
2022/04/10 04:19:10;;;;;;;10.00;6.07;;;;;;;3.74;71.30;99872.00;4972137;28;20541;-65
2022/04/10 04:21:35;;;;;;;8.43;4.97;;;;;;;3.75;71.10;99872.00;4971080;28;20039;-65
2022/04/10 04:24:00;;;;;;;10.15;6.25;;;;;;;3.79;71.18;99875.38;4969739;28;20068;-64
2022/04/10 04:26:26;;;;;;;8.80;5.25;;;;;;;3.80;71.13;99872.75;4971044;28;20491;-65
2022/04/10 04:28:51;;;;;;;8.90;5.28;;;;;;;3.82;71.36;99877.94;4970872;28;20054;-64
2022/04/10 04:31:16;;;;;;;10.02;5.57;;;;;;;3.82;71.27;99876.19;4970289;28;20102;-64
2022/04/10 04:33:42;;;;;;;7.60;5.18;;;;;;;3.80;71.52;99883.19;4971054;28;20043;-65
2022/04/10 04:36:07;;;;;;;8.50;5.78;;;;;;;3.77;71.62;99877.19;4971596;28;20050;-64
2022/04/10 04:38:32;;;;;;;11.32;6.80;;;;;;;3.81;71.67;99879.66;4970814;28;20118;-64
2022/04/10 04:40:58;;;;;;;12.73;6.22;;;;;;;3.77;71.79;99885.84;4970383;28;20138;-64
2022/04/10 04:43:23;;;;;;;13.82;7.88;;;;;;;3.68;72.59;99879.97;4970413;28;20137;-64
2022/04/10 04:45:49;;;;;;;9.07;6.55;;;;;;;3.67;72.60;99884.31;5001530;28;20089;-63
2022/04/10 04:48:14;;;;;;;11.20;5.72;;;;;;;3.75;72.63;99881.56;4970467;28;20058;-64
2022/04/10 04:50:43;;;;;;;12.73;5.88;;;;;;;3.76;72.15;99885.88;4970759;28;20503;-64
2022/04/10 04:53:08;;;;;;;10.30;6.57;;;;;;;3.72;72.60;99890.31;4970536;28;20480;-65
2022/04/10 04:55:33;;;;;;;11.40;7.30;;;;;;;3.75;72.77;99885.03;4970507;28;20035;-64
2022/04/10 04:57:58;;;;;;;7.43;5.55;;;;;;;3.80;72.88;99885.78;4970841;28;20039;-64
2022/04/10 05:00:24;;;;;;;10.63;6.35;;;;;;;3.86;72.52;99892.63;4970272;28;20046;-65
2022/04/10 05:02:49;;;;;;;12.90;6.63;;;;;;;3.83;72.33;99890.94;4968732;28;20182;-64
2022/04/10 05:05:14;;;;;;;11.98;7.25;;;;;;;3.88;72.45;99890.84;4970082;28;20491;-64
2022/04/10 05:07:40;;;;;;;11.77;7.20;;;;;;;3.90;72.28;99883.84;4971029;28;20089;-63
2022/04/10 05:10:05;;;;;;;12.40;6.63;;;;;;;3.94;72.01;99897.69;4970264;28;20039;-65
2022/04/10 05:12:32;;;;;;;12.45;7.30;;;;;;;3.94;72.10;99898.56;4968472;28;20430;-64
2022/04/10 05:14:59;;;;;;;11.40;6.57;;;;;;;3.93;71.96;99902.03;4968893;28;20041;-62
2022/04/10 05:17:26;;;;;;;11.63;6.25;;;;;;;3.90;72.22;99902.13;4970364;28;20518;-65
2022/04/10 05:19:52;;;;;;;16.25;8.02;;;;;;;3.85;72.06;99898.75;4970594;28;20039;-64
2022/04/10 05:22:18;;;;;;;11.98;8.05;;;;;;;3.81;72.23;99897.94;4973004;28;20094;-64
2022/04/10 05:24:43;;;;;;;16.10;8.07;;;;;;;3.83;72.37;99908.34;4970197;28;20030;-65
2022/04/10 05:27:10;;;;;;;11.27;6.10;;;;;;;3.91;72.42;99905.56;4970528;28;20042;-63
2022/04/10 05:29:36;;;;;;;12.48;6.63;;;;;;;3.96;71.91;99904.59;4972537;28;20499;-64
2022/04/10 05:32:01;;;;;;;10.40;7.05;;;;;;;3.98;71.94;99901.94;4973095;28;20188;-64
2022/04/10 05:34:27;;;;;;;8.60;6.45;;;;;;;4.00;71.60;99911.47;4973742;28;20144;-64
2022/04/10 05:36:52;;;;;;;12.13;7.30;;;;;;;4.04;71.33;99914.88;4973718;28;20102;-64
2022/04/10 05:39:18;;;;;;;10.60;6.82;;;;;;;4.09;71.29;99926.09;4973871;28;20085;-64
2022/04/10 05:41:43;;;;;;;12.95;7.85;;;;;;;4.12;71.27;99919.94;4973199;28;20039;-64
2022/04/10 05:44:09;;;;;;;11.40;9.15;;;;;;;4.12;71.16;99927.78;4973856;28;20485;-63
2022/04/10 05:46:38;;;;;;;9.50;7.15;;;;;;;4.16;71.12;99932.00;4973543;28;20039;-64
2022/04/10 05:49:04;;;;;;;9.18;6.72;;;;;;;4.19;71.08;99939.81;4972201;28;20046;-63
2022/04/10 05:51:29;;;;;;;11.60;7.97;;;;;;;4.24;71.19;99941.41;4972882;28;20419;-64
2022/04/10 05:53:55;;;;;;;10.52;6.55;;;;;;;4.32;70.96;99929.97;4973915;28;20038;-65
2022/04/10 05:56:20;;;;;;;14.57;7.32;;;;;;;4.41;70.27;99948.88;4973287;28;20035;-65
2022/04/10 05:58:45;;;;;;;7.47;6.18;;;;;;;4.50;70.28;99946.09;5004778;28;20054;-63
2022/04/10 06:01:11;;;;;;;12.60;6.97;;;;;;;4.61;69.74;99947.59;4973155;28;20073;-63
2022/04/10 06:03:36;;;;;;;11.98;7.40;;;;;;;4.70;69.77;99952.59;4973884;28;20084;-64
2022/04/10 06:06:02;;;;;;;10.68;7.50;;;;;;;4.72;69.48;99954.28;4973788;28;20042;-64
2022/04/10 06:08:27;;;;;;;9.18;6.15;;;;;;;4.81;69.44;99952.38;4973746;28;20054;-64
2022/04/10 06:10:52;;;;;;;9.90;6.72;;;;;;;4.84;68.66;99960.97;4973713;28;20384;-65
2022/04/10 06:13:19;;;;;;;10.32;7.47;;;;;;;4.89;69.08;99966.09;4973228;28;20031;-64
2022/04/10 06:15:44;;;;;;;11.45;7.32;;;;;;;4.92;68.93;99964.28;4973440;28;20177;-64
2022/04/10 06:18:10;;;;;;;13.68;7.22;;;;;;;4.97;68.55;99966.78;4974079;28;20130;-64
2022/04/10 06:20:38;;;;;;;16.52;8.55;;;;;;;5.03;68.27;99971.00;4971985;28;20368;-65
2022/04/10 06:23:04;;;;;;;17.30;7.10;;;;;;;5.10;67.89;99970.84;4974045;28;20046;-64
2022/04/10 06:25:29;;;;;;;9.77;7.30;;;;;;;5.15;68.22;99966.34;4974463;28;20035;-65
2022/04/10 06:27:56;;;;;;;12.40;8.23;;;;;;;5.21;67.64;99964.47;4974836;28;20495;-65
2022/04/10 06:30:22;;;;;;;12.13;7.75;;;;;;;5.30;67.52;99966.88;4976653;28;20109;-65
2022/04/10 06:32:48;;;;;;;8.95;6.20;;;;;;;5.42;67.50;99976.19;4974402;28;20427;-65
2022/04/10 06:35:13;;;;;;;13.15;7.70;;;;;;;5.46;67.10;99983.88;4972735;28;20177;-66
2022/04/10 06:37:39;;;;;;;12.48;7.72;;;;;;;5.49;66.77;99985.56;4973204;28;20059;-66
2022/04/10 06:40:05;;;;;;;9.57;6.70;;;;;;;5.59;66.42;99981.84;4971369;28;20482;-66
2022/04/10 06:42:30;;;;;;;9.13;7.03;;;;;;;5.71;66.09;99984.13;4972289;28;20039;-67
2022/04/10 06:44:56;;;;;;;12.70;8.02;;;;;;;5.81;65.68;99987.38;4972519;28;20038;-69
2022/04/10 06:47:21;;;;;;;12.32;6.95;;;;;;;5.84;65.47;99986.44;4972332;28;20043;-66
2022/04/10 06:49:46;;;;;;;11.02;7.80;;;;;;;5.92;65.36;99984.44;4972168;28;20034;-66
2022/04/10 06:52:12;;;;;;;14.50;7.05;;;;;;;6.02;65.52;99985.94;4971867;28;20050;-64
2022/04/10 06:54:37;;;;;;;16.70;8.35;;;;;;;6.06;65.06;99994.59;4972154;28;20062;-66
2022/04/10 06:57:03;;;;;;;16.27;8.32;;;;;;;6.13;64.80;99989.13;4972357;28;20038;-66
2022/04/10 06:59:28;;;;;;;13.05;7.53;;;;;;;6.31;64.30;100000.84;4972079;28;20038;-66
2022/04/10 07:01:53;;;;;;;11.57;8.48;;;;;;;6.44;63.78;99998.72;4971046;28;20074;-66
2022/04/10 07:04:19;;;;;;;14.60;8.68;;;;;;;6.59;63.33;99998.28;4971931;28;20039;-66
2022/04/10 07:06:46;;;;;;;14.23;9.07;;;;;;;6.80;62.55;99991.56;4972147;28;20037;-65
2022/04/10 07:09:13;;;;;;;12.65;7.93;;;;;;;6.97;62.49;99996.28;4971862;28;20038;-65
2022/04/10 07:11:38;;;;;;;13.20;9.07;;;;;;;7.14;61.42;99994.88;4971648;28;20034;-66
2022/04/10 07:14:04;;;;;;;21.02;9.35;;;;;;;7.21;61.43;99999.00;4971299;28;20376;-66
2022/04/10 07:16:29;;;;;;;13.82;8.73;;;;;;;7.22;61.34;100000.75;4971541;28;20411;-67
2022/04/10 07:18:54;;;;;;;14.32;8.27;;;;;;;7.25;61.28;100005.88;4971647;28;20051;-67
2022/04/10 07:23:41;;;;;;;15.45;8.18;;;;;;;7.25;60.96;100005.88;4971108;28;20122;-66
2022/04/10 07:24:06;;;;;;;13.88;7.75;;;;;;;7.55;60.01;100009.28;4971901;28;20053;-66
2022/04/10 07:26:31;;;;;;;11.93;7.82;;;;;;;7.63;59.84;100011.63;4971868;28;20097;-66
2022/04/10 07:28:57;;;;;;;12.63;7.80;;;;;;;7.93;59.08;100023.72;4970068;28;20046;-66
2022/04/10 07:31:23;;;;;;;14.50;8.00;;;;;;;8.64;57.57;100015.97;4971303;28;20042;-65
2022/04/10 07:33:48;;;;;;;13.75;8.35;;;;;;;9.02;56.15;100016.25;4969996;28;20546;-66
2022/04/10 07:36:13;;;;;;;10.50;7.70;;;;;;;9.24;55.33;100018.91;4970304;28;20158;-65
2022/04/10 07:38:39;;;;;;;16.45;8.18;;;;;;;9.61;54.21;100020.88;4971979;28;20125;-65
2022/04/10 07:41:05;;;;;;;11.90;7.85;;;;;;;9.97;53.03;100016.75;4970867;28;20026;-66
2022/04/10 07:43:31;;;;;;;17.27;9.30;;;;;;;10.16;52.48;100017.66;4971355;28;20042;-66
2022/04/10 07:48:41;;;;;;;14.32;8.50;;;;;;;11.05;50.61;100018.06;4971572;28;20472;-66
2022/04/10 07:51:07;;;;;;;15.05;7.22;;;;;;;11.05;49.22;100025.97;4971722;28;20039;-65
2022/04/10 07:53:32;;;;;;;16.88;9.80;;;;;;;10.96;49.50;100028.13;4977622;28;20218;-65
2022/04/10 07:55:58;;;;;;;11.98;8.23;;;;;;;10.84;50.29;100028.69;4977896;28;20035;-65
2022/04/10 07:58:24;;;;;;;18.48;7.97;;;;;;;10.55;50.95;100032.66;4976243;28;20061;-64
2022/04/10 08:00:49;;;;;;;14.25;7.93;;;;;;;10.64;51.13;100037.53;4973558;28;20033;-65
2022/04/10 08:03:14;;;;;;;16.45;9.20;;;;;;;10.70;50.68;100037.25;4970892;28;20483;-67
2022/04/10 08:05:40;;;;;;;11.57;8.90;;;;;;;11.76;47.76;100042.75;4970540;28;20043;-66
2022/04/10 08:08:05;;;;;;;15.35;8.48;;;;;;;12.62;45.79;100040.97;4970100;28;20103;-66
2022/04/10 08:10:31;;;;;;;17.05;9.02;;;;;;;13.09;44.26;100042.84;4968056;28;20793;-66
2022/04/10 08:12:58;;;;;;;10.98;7.63;;;;;;;13.37;43.40;100049.25;4969748;28;20190;-66
2022/04/10 08:15:23;;;;;;;10.68;6.60;;;;;;;13.57;41.99;100058.72;4969835;28;20122;-65
2022/04/10 08:17:49;;;;;;;12.70;6.80;;;;;;;13.86;40.90;100051.72;4967948;28;20109;-66
2022/04/10 08:20:16;;;;;;;14.30;7.63;;;;;;;13.93;40.62;100054.84;4965312;28;20121;-65
2022/04/10 08:22:41;;;;;;;9.52;6.22;;;;;;;13.97;40.19;100053.75;4969300;28;20046;-65
2022/04/10 08:25:12;;;;;;;11.88;7.00;;;;;;;13.87;40.54;100063.19;4969315;28;20031;-66
2022/04/10 08:27:38;;;;;;;13.02;7.80;;;;;;;14.05;39.44;100059.44;4967535;28;20427;-65
2022/04/10 08:30:08;;;;;;;10.00;7.45;;;;;;;14.34;39.34;100065.66;4968768;28;20058;-67
2022/04/10 08:32:37;;;;;;;9.25;6.20;;;;;;;14.44;38.52;100063.28;4968809;28;20039;-67
2022/04/10 08:35:03;;;;;;;15.80;9.15;;;;;;;14.03;38.89;100057.81;4970231;28;20043;-66
2022/04/10 08:37:28;;;;;;;10.90;5.60;;;;;;;13.83;37.35;100080.19;4970455;28;20058;-65
2022/04/10 08:39:54;;;;;;;10.35;5.50;;;;;;;13.54;36.37;100072.13;4970084;28;20417;-66
2022/04/10 08:42:20;;;;;;;11.38;4.95;;;;;;;13.03;36.33;100072.28;4968552;28;20055;-66
2022/04/10 08:44:46;;;;;;;8.40;3.90;;;;;;;12.76;37.86;100068.47;4968579;28;20035;-64
2022/04/10 08:47:15;;;;;;;9.10;4.50;;;;;;;13.11;37.15;100072.69;4969416;28;20491;-65
2022/04/10 08:49:40;;;;;;;7.15;4.43;;;;;;;13.55;36.87;100067.69;4951177;28;20047;-66
2022/04/10 08:52:07;;;;;;;8.13;4.70;;;;;;;13.65;35.69;100076.81;4967570;28;20043;-65
2022/04/10 08:54:35;;;;;;;10.32;4.13;;;;;;;13.55;36.10;100073.84;4968859;28;20081;-65
2022/04/10 08:57:02;;;;;;;11.00;6.25;;;;;;;13.22;36.67;100081.88;4966385;28;20039;-66
2022/04/10 08:59:27;;;;;;;8.80;4.03;;;;;;;12.77;37.33;100078.97;4969833;28;20070;-65
2022/04/10 09:01:53;;;;;;;10.90;5.38;;;;;;;13.16;36.28;100079.53;4968654;28;20531;-66
2022/04/10 09:04:20;;;;;;;7.50;5.28;;;;;;;13.31;34.28;100076.94;4972458;28;20407;-65
2022/04/10 09:07:07;;;;;;;8.57;4.28;;;;;;;13.88;33.45;100079.00;4974010;28;20530;-66
2022/04/10 09:09:34;;;;;;;6.40;3.15;;;;;;;14.17;31.73;100071.13;4972746;28;20406;-64
2022/04/10 09:12:00;;;;;;;5.65;3.40;;;;;;;14.59;31.31;100069.50;4973782;28;20049;-64
2022/04/10 09:14:29;;;;;;;7.32;3.72;;;;;;;15.21;31.16;100071.81;4973010;28;20050;-65
2022/04/10 09:17:14;;;;;;;8.63;4.22;;;;;;;15.75;30.19;100066.56;4959124;28;20078;-63
2022/04/10 09:19:53;;;;;;;8.82;4.55;;;;;;;15.99;30.68;100079.16;4964825;28;20054;-64
2022/04/10 09:22:30;;;;;;;9.50;5.32;;;;;;;16.02;31.17;100070.97;4968637;28;20043;-67
2022/04/10 09:25:04;;;;;;;12.27;4.55;;;;;;;15.13;32.43;100080.28;4968434;28;20668;-67
2022/04/10 09:27:34;;;;;;;10.40;4.47;;;;;;;14.75;32.84;100080.03;4967960;28;20531;-68
2022/04/10 09:30:00;;;;;;;11.90;4.55;;;;;;;13.69;33.10;100091.59;4966418;28;20042;-67
2022/04/10 09:32:44;;;;;;;11.98;4.38;;;;;;;13.71;33.70;100087.91;4968426;28;20458;-65
2022/04/10 09:35:12;;;;;;;8.13;5.00;;;;;;;14.98;32.60;100084.75;4969550;28;20039;-67
2022/04/10 09:37:55;;;;;;;8.05;4.95;;;;;;;16.13;30.58;100078.25;4968778;28;20035;-66
2022/04/10 09:40:33;;;;;;;7.53;4.65;;;;;;;16.66;29.82;100084.34;4968484;28;20038;-66
2022/04/10 09:43:12;;;;;;;10.52;4.35;;;;;;;15.48;31.77;100078.97;4968993;28;20038;-66
2022/04/10 09:45:43;;;;;;;14.55;5.50;;;;;;;14.69;31.96;100089.19;4969148;28;20105;-66
2022/04/10 09:48:22;;;;;;;8.43;4.30;;;;;;;15.12;31.66;100086.53;4969164;28;20043;-67
2022/04/10 09:50:52;;;;;;;8.48;4.43;;;;;;;16.06;29.06;100078.66;4968425;28;20097;-65
2022/04/10 09:53:18;;;;;;;5.28;3.40;;;;;;;16.45;28.99;100076.06;4969485;28;20035;-68
2022/04/10 09:55:43;;;;;;;7.30;3.78;;;;;;;16.91;29.14;100072.88;4968565;28;20170;-66
2022/04/10 09:58:13;;;;;;;8.15;3.38;;;;;;;16.83;27.82;100067.22;4970874;28;20667;-67
2022/04/10 10:00:43;;;;;;;6.05;3.13;;;;;;;15.63;29.92;100075.31;4969855;28;20451;-68
2022/04/10 10:03:09;;;;;;;5.88;3.95;;;;;;;16.60;28.60;100077.66;4969871;28;20027;-67
2022/04/10 10:05:35;;;;;;;8.52;3.45;;;;;;;17.54;27.50;100063.81;4970355;28;20042;-67
2022/04/10 10:08:01;;;;;;;4.65;3.30;;;;;;;17.79;26.30;100064.66;4970710;28;20402;-66
2022/04/10 10:10:36;;;;;;;12.52;4.07;;;;;;;16.53;27.79;100068.38;4970110;28;20041;-67
2022/04/10 10:13:03;;;;;;;6.95;4.00;;;;;;;14.62;30.36;100074.63;4970298;28;20035;-65
2022/04/10 10:15:29;;;;;;;8.95;4.25;;;;;;;14.70;30.71;100080.31;4965928;28;20714;-64
2022/04/10 10:17:55;;;;;;;9.05;4.28;;;;;;;15.60;28.94;100063.09;4967516;28;20050;-65
2022/04/10 10:20:21;;;;;;;7.15;4.30;;;;;;;16.81;28.18;100066.47;4967803;28;20646;-67
2022/04/10 10:22:47;;;;;;;12.63;6.88;;;;;;;16.45;28.52;100068.91;4969779;28;20039;-66
2022/04/10 10:25:19;;;;;;;6.55;3.67;;;;;;;15.98;29.75;100059.72;4970124;28;20121;-67
2022/04/10 10:28:00;;;;;;;6.88;4.25;;;;;;;16.83;28.97;100060.06;4970027;28;20955;-67
2022/04/10 10:30:45;;;;;;;10.02;4.35;;;;;;;17.59;27.14;100060.81;4970127;28;20089;-67
2022/04/10 10:33:19;;;;;;;9.38;4.65;;;;;;;18.15;26.75;100055.72;4967676;28;20397;-67
2022/04/10 10:35:49;;;;;;;6.93;3.70;;;;;;;18.70;26.02;100053.25;4969142;28;20042;-67
2022/04/10 10:38:28;;;;;;;8.52;3.80;;;;;;;17.35;27.50;100059.00;4968807;28;20567;-66
2022/04/10 10:41:11;;;;;;;5.97;3.80;;;;;;;15.85;30.80;100058.81;4969137;28;20046;-67
2022/04/10 10:43:36;;;;;;;6.05;3.72;;;;;;;14.87;31.68;100062.50;4967652;28;20049;-65
2022/04/10 10:46:02;;;;;;;8.85;4.28;;;;;;;14.52;32.36;100060.16;4969571;28;20058;-66
2022/04/10 10:48:38;;;;;;;7.30;3.70;;;;;;;14.61;32.06;100059.63;4968352;28;20538;-65
2022/04/10 10:51:10;;;;;;;7.65;3.65;;;;;;;14.72;30.69;100054.53;4967572;28;20034;-66
2022/04/10 10:53:46;;;;;;;9.43;3.70;;;;;;;14.47;31.31;100052.53;4968730;28;20141;-66
2022/04/10 10:56:20;;;;;;;8.82;4.00;;;;;;;13.86;33.10;100059.69;4967821;28;20043;-66
2022/04/10 10:58:50;;;;;;;6.97;4.55;;;;;;;13.30;34.48;100053.19;4969553;28;20490;-65
2022/04/10 11:01:18;;;;;;;8.43;3.85;;;;;;;12.83;35.98;100057.47;4970181;28;20162;-66
2022/04/10 11:04:04;;;;;;;7.50;4.55;;;;;;;12.46;36.24;100048.03;4970638;28;20499;-65
2022/04/10 11:06:30;;;;;;;8.05;4.65;;;;;;;12.58;36.51;100051.81;4970415;28;20113;-66
2022/04/10 11:09:22;;;;;;;6.35;3.45;;;;;;;12.89;35.90;100045.69;4968556;28;20058;-65
2022/04/10 11:11:48;;;;;;;14.32;4.57;;;;;;;13.05;36.19;100049.22;4968889;28;20122;-66
2022/04/10 11:14:39;;;;;;;6.35;3.88;;;;;;;13.28;34.46;100044.47;4968131;28;20038;-66
2022/04/10 11:17:13;;;;;;;9.23;4.72;;;;;;;12.61;35.74;100044.56;4972427;28;20035;-67
2022/04/10 11:19:40;;;;;;;5.70;3.42;;;;;;;12.30;36.52;100044.47;4971520;28;20050;-66
2022/04/10 11:22:07;;;;;;;5.50;3.75;;;;;;;12.45;36.32;100043.66;4968660;28;20050;-66
2022/04/10 11:24:34;;;;;;;8.05;3.95;;;;;;;12.39;35.02;100047.47;4968550;28;22656;-66
2022/04/10 11:27:03;;;;;;;7.70;3.40;;;;;;;12.16;34.04;100047.84;4968490;28;20069;-66
2022/04/10 11:29:28;;;;;;;7.70;3.42;;;;;;;11.93;34.52;100046.34;4967132;28;20057;-65
2022/04/10 11:31:53;;;;;;;4.75;2.85;;;;;;;11.89;34.68;100048.31;4966878;28;20160;-66
2022/04/10 11:34:21;;;;;;;6.63;4.60;;;;;;;11.86;35.68;100053.69;4968668;28;20050;-65